sensor_id;sensor_type;location;lat;lon;timestamp;pressure;altitude;pressure_sealevel;temperature;humidity
63556;BME280;49700;48.072;7.800;2022-12-29T00:01:36;99158.16;;;12.27;53.88
63556;BME280;49700;48.072;7.800;2022-12-29T00:04:01;99166.56;;;12.32;53.81
63556;BME280;49700;48.072;7.800;2022-12-29T00:06:27;99153.25;;;12.34;53.40
63556;BME280;49700;48.072;7.800;2022-12-29T00:08:52;99154.44;;;12.41;53.30
63556;BME280;49700;48.072;7.800;2022-12-29T00:11:20;99160.19;;;12.46;52.98
63556;BME280;49700;48.072;7.800;2022-12-29T00:13:46;99154.56;;;12.51;52.82
63556;BME280;49700;48.072;7.800;2022-12-29T00:16:32;99153.50;;;12.53;52.57
63556;BME280;49700;48.072;7.800;2022-12-29T00:18:58;99154.91;;;12.57;52.08
63556;BME280;49700;48.072;7.800;2022-12-29T00:21:25;99162.22;;;12.65;52.12
63556;BME280;49700;48.072;7.800;2022-12-29T00:24:12;99166.41;;;12.68;51.93
63556;BME280;49700;48.072;7.800;2022-12-29T00:26:57;99162.69;;;12.70;52.00
63556;BME280;49700;48.072;7.800;2022-12-29T00:29:42;99151.31;;;12.70;52.13
63556;BME280;49700;48.072;7.800;2022-12-29T00:32:26;99155.88;;;12.68;52.03
63556;BME280;49700;48.072;7.800;2022-12-29T00:35:17;99165.44;;;12.69;52.23
63556;BME280;49700;48.072;7.800;2022-12-29T00:37:45;99166.50;;;12.66;52.41
63556;BME280;49700;48.072;7.800;2022-12-29T00:40:30;99160.66;;;12.62;52.21
63556;BME280;49700;48.072;7.800;2022-12-29T00:43:14;99161.63;;;12.61;52.32
63556;BME280;49700;48.072;7.800;2022-12-29T00:45:58;99156.13;;;12.65;52.07
63556;BME280;49700;48.072;7.800;2022-12-29T00:48:23;99158.41;;;12.69;51.91
63556;BME280;49700;48.072;7.800;2022-12-29T00:51:07;99148.44;;;12.73;51.81
63556;BME280;49700;48.072;7.800;2022-12-29T00:53:33;99145.44;;;12.77;51.64
63556;BME280;49700;48.072;7.800;2022-12-29T00:55:59;99150.31;;;12.82;51.22
63556;BME280;49700;48.072;7.800;2022-12-29T00:58:28;99141.22;;;12.86;50.78
63556;BME280;49700;48.072;7.800;2022-12-29T01:01:04;99159.06;;;12.94;50.83
63556;BME280;49700;48.072;7.800;2022-12-29T01:03:32;99159.53;;;12.99;50.53
63556;BME280;49700;48.072;7.800;2022-12-29T01:06:00;99154.00;;;13.02;50.29
63556;BME280;49700;48.072;7.800;2022-12-29T01:08:30;99157.13;;;13.07;50.06
63556;BME280;49700;48.072;7.800;2022-12-29T01:11:06;99161.03;;;13.13;49.75
63556;BME280;49700;48.072;7.800;2022-12-29T01:13:32;99164.25;;;13.16;49.78
63556;BME280;49700;48.072;7.800;2022-12-29T01:15:58;99173.34;;;13.23;49.43
63556;BME280;49700;48.072;7.800;2022-12-29T01:18:27;99174.94;;;13.26;49.32
63556;BME280;49700;48.072;7.800;2022-12-29T01:21:04;99181.06;;;13.26;49.36
63556;BME280;49700;48.072;7.800;2022-12-29T01:23:31;99179.31;;;13.25;49.43
63556;BME280;49700;48.072;7.800;2022-12-29T01:25:57;99181.97;;;13.25;49.40
63556;BME280;49700;48.072;7.800;2022-12-29T01:28:23;99177.59;;;13.26;49.35
63556;BME280;49700;48.072;7.800;2022-12-29T01:30:48;99172.31;;;13.26;49.26
63556;BME280;49700;48.072;7.800;2022-12-29T01:33:14;99179.25;;;13.27;49.21
63556;BME280;49700;48.072;7.800;2022-12-29T01:35:40;99183.19;;;13.33;49.10
63556;BME280;49700;48.072;7.800;2022-12-29T01:38:05;99184.84;;;13.34;48.93
63556;BME280;49700;48.072;7.800;2022-12-29T01:40:31;99197.91;;;13.35;48.98
63556;BME280;49700;48.072;7.800;2022-12-29T01:42:56;99180.16;;;13.37;48.87
63556;BME280;49700;48.072;7.800;2022-12-29T01:45:22;99190.72;;;13.37;48.82
63556;BME280;49700;48.072;7.800;2022-12-29T01:47:52;99190.97;;;13.34;49.33
63556;BME280;49700;48.072;7.800;2022-12-29T01:50:35;99196.47;;;13.31;49.26
63556;BME280;49700;48.072;7.800;2022-12-29T01:53:08;99192.91;;;13.32;49.20
63556;BME280;49700;48.072;7.800;2022-12-29T01:55:39;99190.38;;;13.31;49.48
63556;BME280;49700;48.072;7.800;2022-12-29T01:58:07;99187.88;;;13.29;49.51
63556;BME280;49700;48.072;7.800;2022-12-29T02:00:33;99189.03;;;13.25;49.64
63556;BME280;49700;48.072;7.800;2022-12-29T02:02:58;99191.69;;;13.25;49.63
63556;BME280;49700;48.072;7.800;2022-12-29T02:05:33;99193.41;;;13.26;49.67
63556;BME280;49700;48.072;7.800;2022-12-29T02:08:01;99185.34;;;13.27;49.42
63556;BME280;49700;48.072;7.800;2022-12-29T02:10:28;99194.81;;;13.30;49.36
63556;BME280;49700;48.072;7.800;2022-12-29T02:12:55;99186.19;;;13.28;49.72
63556;BME280;49700;48.072;7.800;2022-12-29T02:18:25;99197.44;;;13.30;49.59
63556;BME280;49700;48.072;7.800;2022-12-29T02:24:09;99199.25;;;13.30;49.95
63556;BME280;49700;48.072;7.800;2022-12-29T02:32:02;99199.72;;;13.23;49.97
63556;BME280;49700;48.072;7.800;2022-12-29T02:37:48;99185.94;;;13.20;50.23
63556;BME280;49700;48.072;7.800;2022-12-29T02:40:31;99183.31;;;13.20;50.12
63556;BME280;49700;48.072;7.800;2022-12-29T02:43:24;99194.25;;;13.15;50.28
63556;BME280;49700;48.072;7.800;2022-12-29T02:45:58;99181.63;;;13.19;50.15
63556;BME280;49700;48.072;7.800;2022-12-29T02:51:06;99186.19;;;13.17;50.35
63556;BME280;49700;48.072;7.800;2022-12-29T02:53:34;99180.91;;;13.17;50.33
63556;BME280;49700;48.072;7.800;2022-12-29T02:56:20;99187.16;;;13.16;50.43
63556;BME280;49700;48.072;7.800;2022-12-29T02:58:46;99180.44;;;13.12;50.68
63556;BME280;49700;48.072;7.800;2022-12-29T03:01:37;99189.69;;;13.06;50.92
63556;BME280;49700;48.072;7.800;2022-12-29T03:04:41;99169.81;;;13.02;51.12
63556;BME280;49700;48.072;7.800;2022-12-29T03:07:23;99173.53;;;12.99;51.20
63556;BME280;49700;48.072;7.800;2022-12-29T03:10:05;99176.28;;;12.98;51.32
63556;BME280;49700;48.072;7.800;2022-12-29T03:12:48;99167.81;;;12.94;51.67
63556;BME280;49700;48.072;7.800;2022-12-29T03:15:41;99163.38;;;12.95;51.77
63556;BME280;49700;48.072;7.800;2022-12-29T03:18:44;99170.56;;;12.93;51.96
63556;BME280;49700;48.072;7.800;2022-12-29T03:24:10;99157.88;;;12.87;52.30
63556;BME280;49700;48.072;7.800;2022-12-29T03:26:37;99153.44;;;12.87;52.35
63556;BME280;49700;48.072;7.800;2022-12-29T03:29:04;99158.59;;;12.89;52.50
63556;BME280;49700;48.072;7.800;2022-12-29T03:31:31;99148.06;;;12.89;52.60
63556;BME280;49700;48.072;7.800;2022-12-29T03:33:58;99140.25;;;12.87;52.89
63556;BME280;49700;48.072;7.800;2022-12-29T03:36:32;99117.50;;;12.86;52.81
63556;BME280;49700;48.072;7.800;2022-12-29T03:39:11;99110.53;;;12.85;52.93
63556;BME280;49700;48.072;7.800;2022-12-29T03:41:42;99110.78;;;12.82;53.02
63556;BME280;49700;48.072;7.800;2022-12-29T03:44:10;99112.13;;;12.76;53.01
63556;BME280;49700;48.072;7.800;2022-12-29T03:46:36;99138.00;;;12.71;53.33
63556;BME280;49700;48.072;7.800;2022-12-29T03:49:02;99131.06;;;12.70;53.16
63556;BME280;49700;48.072;7.800;2022-12-29T03:51:27;99142.59;;;12.69;53.31
63556;BME280;49700;48.072;7.800;2022-12-29T03:53:53;99144.34;;;12.69;53.46
63556;BME280;49700;48.072;7.800;2022-12-29T03:56:19;99147.00;;;12.69;53.46
63556;BME280;49700;48.072;7.800;2022-12-29T03:58:44;99140.06;;;12.68;53.38
63556;BME280;49700;48.072;7.800;2022-12-29T04:01:14;99139.81;;;12.71;53.45
63556;BME280;49700;48.072;7.800;2022-12-29T04:03:40;99147.47;;;12.74;53.39
63556;BME280;49700;48.072;7.800;2022-12-29T04:06:06;99146.38;;;12.76;53.52
63556;BME280;49700;48.072;7.800;2022-12-29T04:08:38;99130.72;;;12.75;53.42
63556;BME280;49700;48.072;7.800;2022-12-29T04:11:05;99136.81;;;12.75;53.40
63556;BME280;49700;48.072;7.800;2022-12-29T04:13:31;99133.34;;;12.75;53.48
63556;BME280;49700;48.072;7.800;2022-12-29T04:15:56;99133.56;;;12.72;53.49
63556;BME280;49700;48.072;7.800;2022-12-29T04:18:22;99138.00;;;12.71;53.65
63556;BME280;49700;48.072;7.800;2022-12-29T04:20:47;99137.53;;;12.66;54.04
63556;BME280;49700;48.072;7.800;2022-12-29T04:23:31;99135.88;;;12.65;53.91
63556;BME280;49700;48.072;7.800;2022-12-29T04:25:57;99131.56;;;12.64;53.91
63556;BME280;49700;48.072;7.800;2022-12-29T04:28:24;99138.59;;;12.63;54.08
63556;BME280;49700;48.072;7.800;2022-12-29T04:31:12;99135.28;;;12.61;54.27
63556;BME280;49700;48.072;7.800;2022-12-29T04:33:40;99130.13;;;12.60;54.44
63556;BME280;49700;48.072;7.800;2022-12-29T04:36:06;99131.19;;;12.57;54.55
63556;BME280;49700;48.072;7.800;2022-12-29T04:38:32;99133.38;;;12.52;54.45
63556;BME280;49700;48.072;7.800;2022-12-29T04:41:00;99120.81;;;12.56;54.09
63556;BME280;49700;48.072;7.800;2022-12-29T04:43:27;99123.19;;;12.59;54.11
63556;BME280;49700;48.072;7.800;2022-12-29T04:46:12;99113.72;;;12.56;54.18
63556;BME280;49700;48.072;7.800;2022-12-29T04:48:51;99122.56;;;12.55;53.97
63556;BME280;49700;48.072;7.800;2022-12-29T04:51:40;99115.53;;;12.56;53.97
63556;BME280;49700;48.072;7.800;2022-12-29T04:54:08;99116.13;;;12.59;53.67
63556;BME280;49700;48.072;7.800;2022-12-29T04:56:34;99120.31;;;12.62;53.60
63556;BME280;49700;48.072;7.800;2022-12-29T04:58:59;99109.78;;;12.62;53.75
63556;BME280;49700;48.072;7.800;2022-12-29T05:01:25;99109.88;;;12.60;53.86
63556;BME280;49700;48.072;7.800;2022-12-29T05:03:53;99111.09;;;12.56;53.97
63556;BME280;49700;48.072;7.800;2022-12-29T05:06:19;99114.09;;;12.52;54.15
63556;BME280;49700;48.072;7.800;2022-12-29T05:08:44;99112.69;;;12.48;54.23
63556;BME280;49700;48.072;7.800;2022-12-29T05:11:10;99118.31;;;12.43;54.47
63556;BME280;49700;48.072;7.800;2022-12-29T05:13:36;99106.31;;;12.39;54.74
63556;BME280;49700;48.072;7.800;2022-12-29T05:16:02;99096.28;;;12.33;55.07
63556;BME280;49700;48.072;7.800;2022-12-29T05:18:27;99110.53;;;12.30;55.11
63556;BME280;49700;48.072;7.800;2022-12-29T05:20:56;99090.66;;;12.26;55.11
63556;BME280;49700;48.072;7.800;2022-12-29T05:23:26;99093.66;;;12.22;55.64
63556;BME280;49700;48.072;7.800;2022-12-29T05:26:22;99093.06;;;12.18;55.75
63556;BME280;49700;48.072;7.800;2022-12-29T05:29:08;99096.16;;;12.12;55.94
63556;BME280;49700;48.072;7.800;2022-12-29T05:31:37;99095.56;;;12.08;56.20
63556;BME280;49700;48.072;7.800;2022-12-29T05:34:08;99094.97;;;12.05;56.17
63556;BME280;49700;48.072;7.800;2022-12-29T05:36:38;99092.47;;;12.03;56.37
63556;BME280;49700;48.072;7.800;2022-12-29T05:39:07;99082.16;;;12.00;56.76
63556;BME280;49700;48.072;7.800;2022-12-29T05:41:33;99085.78;;;11.99;56.89
63556;BME280;49700;48.072;7.800;2022-12-29T05:44:17;99070.09;;;11.98;56.79
63556;BME280;49700;48.072;7.800;2022-12-29T05:46:43;99073.56;;;11.98;56.69
63556;BME280;49700;48.072;7.800;2022-12-29T05:49:13;99081.44;;;11.98;56.69
63556;BME280;49700;48.072;7.800;2022-12-29T05:52:15;99070.09;;;11.98;56.45
63556;BME280;49700;48.072;7.800;2022-12-29T05:54:49;99069.25;;;11.97;56.58
63556;BME280;49700;48.072;7.800;2022-12-29T05:57:28;99063.75;;;12.00;56.37
63556;BME280;49700;48.072;7.800;2022-12-29T06:00:04;99062.53;;;12.04;56.38
63556;BME280;49700;48.072;7.800;2022-12-29T06:02:40;99052.63;;;12.08;56.03
63556;BME280;49700;48.072;7.800;2022-12-29T06:05:06;99065.53;;;12.11;55.98
63556;BME280;49700;48.072;7.800;2022-12-29T06:07:33;99059.53;;;12.09;55.89
63556;BME280;49700;48.072;7.800;2022-12-29T06:10:23;99056.19;;;12.07;56.01
63556;BME280;49700;48.072;7.800;2022-12-29T06:13:04;99044.34;;;12.01;56.09
63556;BME280;49700;48.072;7.800;2022-12-29T06:15:34;99046.50;;;11.96;56.30
63556;BME280;49700;48.072;7.800;2022-12-29T06:18:01;99043.41;;;11.91;56.32
63556;BME280;49700;48.072;7.800;2022-12-29T06:20:27;99044.50;;;11.88;56.37
63556;BME280;49700;48.072;7.800;2022-12-29T06:22:53;99056.09;;;11.86;56.42
63556;BME280;49700;48.072;7.800;2022-12-29T06:25:18;99048.06;;;11.87;56.20
63556;BME280;49700;48.072;7.800;2022-12-29T06:27:44;99042.03;;;11.85;56.37
63556;BME280;49700;48.072;7.800;2022-12-29T06:30:10;99040.53;;;11.83;56.52
63556;BME280;49700;48.072;7.800;2022-12-29T06:32:40;99043.25;;;11.81;56.30
63556;BME280;49700;48.072;7.800;2022-12-29T06:35:09;99043.59;;;11.77;56.40
63556;BME280;49700;48.072;7.800;2022-12-29T06:37:39;99036.09;;;11.72;56.39
63556;BME280;49700;48.072;7.800;2022-12-29T06:40:06;99033.81;;;11.67;56.66
63556;BME280;49700;48.072;7.800;2022-12-29T06:42:45;99037.50;;;11.65;56.55
63556;BME280;49700;48.072;7.800;2022-12-29T06:45:25;99034.03;;;11.64;56.58
63556;BME280;49700;48.072;7.800;2022-12-29T06:47:51;99030.59;;;11.64;56.48
63556;BME280;49700;48.072;7.800;2022-12-29T06:50:16;99028.88;;;11.63;56.40
63556;BME280;49700;48.072;7.800;2022-12-29T06:52:41;99029.84;;;11.62;56.40
63556;BME280;49700;48.072;7.800;2022-12-29T06:55:07;99028.88;;;11.63;56.26
63556;BME280;49700;48.072;7.800;2022-12-29T06:57:33;99026.41;;;11.61;56.24
63556;BME280;49700;48.072;7.800;2022-12-29T06:59:59;99041.31;;;11.61;56.49
63556;BME280;49700;48.072;7.800;2022-12-29T07:02:24;99035.22;;;11.60;56.31
63556;BME280;49700;48.072;7.800;2022-12-29T07:04:52;99037.75;;;11.62;56.17
63556;BME280;49700;48.072;7.800;2022-12-29T07:07:19;99045.50;;;11.63;55.96
63556;BME280;49700;48.072;7.800;2022-12-29T07:09:45;99052.94;;;11.69;55.87
63556;BME280;49700;48.072;7.800;2022-12-29T07:12:11;99045.75;;;11.71;55.78
63556;BME280;49700;48.072;7.800;2022-12-29T07:14:36;99057.72;;;11.76;55.65
63556;BME280;49700;48.072;7.800;2022-12-29T07:17:02;99065.38;;;11.79;55.67
63556;BME280;49700;48.072;7.800;2022-12-29T07:19:31;99078.28;;;11.82;55.46
63556;BME280;49700;48.072;7.800;2022-12-29T07:21:56;99071.88;;;11.86;55.25
63556;BME280;49700;48.072;7.800;2022-12-29T07:24:21;99075.84;;;11.91;55.29
63556;BME280;49700;48.072;7.800;2022-12-29T07:26:47;99083.34;;;11.96;55.23
63556;BME280;49700;48.072;7.800;2022-12-29T07:29:12;99089.22;;;12.00;55.17
63556;BME280;49700;48.072;7.800;2022-12-29T07:31:38;99094.97;;;12.05;55.00
63556;BME280;49700;48.072;7.800;2022-12-29T07:34:04;99087.66;;;12.08;54.89
63556;BME280;49700;48.072;7.800;2022-12-29T07:36:29;99112.94;;;12.11;54.96
63556;BME280;49700;48.072;7.800;2022-12-29T07:38:54;99103.94;;;12.13;54.75
63556;BME280;49700;48.072;7.800;2022-12-29T07:41:20;99098.19;;;12.20;54.53
63556;BME280;49700;48.072;7.800;2022-12-29T07:43:48;99107.41;;;12.25;54.44
63556;BME280;49700;48.072;7.800;2022-12-29T07:46:32;99111.50;;;12.29;54.45
63556;BME280;49700;48.072;7.800;2022-12-29T07:48:58;99109.44;;;12.33;54.45
63556;BME280;49700;48.072;7.800;2022-12-29T07:51:23;99122.25;;;12.37;54.40
63556;BME280;49700;48.072;7.800;2022-12-29T07:53:50;99115.19;;;12.38;54.36
63556;BME280;49700;48.072;7.800;2022-12-29T07:56:15;99124.75;;;12.39;54.33
63556;BME280;49700;48.072;7.800;2022-12-29T07:58:41;99115.91;;;12.40;54.47
63556;BME280;49700;48.072;7.800;2022-12-29T08:01:07;99133.53;;;12.39;54.51
63556;BME280;49700;48.072;7.800;2022-12-29T08:03:35;99115.91;;;12.40;54.66
63556;BME280;49700;48.072;7.800;2022-12-29T08:06:01;99129.91;;;12.40;55.04
63556;BME280;49700;48.072;7.800;2022-12-29T08:08:27;99141.41;;;12.39;55.19
63556;BME280;49700;48.072;7.800;2022-12-29T08:10:52;99131.72;;;12.40;55.23
63556;BME280;49700;48.072;7.800;2022-12-29T08:13:17;99140.44;;;12.40;55.29
63556;BME280;49700;48.072;7.800;2022-12-29T08:15:43;99137.09;;;12.38;55.35
63556;BME280;49700;48.072;7.800;2022-12-29T08:18:32;99151.22;;;12.37;55.62
63556;BME280;49700;48.072;7.800;2022-12-29T08:21:04;99143.31;;;12.37;55.72
63556;BME280;49700;48.072;7.800;2022-12-29T08:23:30;99153.03;;;12.37;55.81
63556;BME280;49700;48.072;7.800;2022-12-29T08:25:59;99151.09;;;12.39;55.98
63556;BME280;49700;48.072;7.800;2022-12-29T08:28:26;99151.97;;;12.39;56.01
63556;BME280;49700;48.072;7.800;2022-12-29T08:30:51;99162.25;;;12.43;55.76
63556;BME280;49700;48.072;7.800;2022-12-29T08:33:17;99172.63;;;12.44;55.77
63556;BME280;49700;48.072;7.800;2022-12-29T08:35:42;99169.75;;;12.47;55.36
63556;BME280;49700;48.072;7.800;2022-12-29T08:38:08;99169.88;;;12.57;54.87
63556;BME280;49700;48.072;7.800;2022-12-29T08:40:33;99170.47;;;12.72;54.45
63556;BME280;49700;48.072;7.800;2022-12-29T08:42:59;99172.97;;;12.84;54.47
63556;BME280;49700;48.072;7.800;2022-12-29T08:45:24;99166.25;;;12.92;54.06
63556;BME280;49700;48.072;7.800;2022-12-29T08:47:49;99174.97;;;13.03;53.62
63556;BME280;49700;48.072;7.800;2022-12-29T08:50:15;99161.50;;;13.18;53.00
63556;BME280;49700;48.072;7.800;2022-12-29T08:52:40;99155.50;;;13.27;52.78
63556;BME280;49700;48.072;7.800;2022-12-29T08:55:06;99166.16;;;13.37;52.65
63556;BME280;49700;48.072;7.800;2022-12-29T08:57:31;99169.38;;;13.40;52.44
63556;BME280;49700;48.072;7.800;2022-12-29T09:00:09;99166.34;;;13.45;52.43
63556;BME280;49700;48.072;7.800;2022-12-29T09:02:35;99169.56;;;13.48;52.40
63556;BME280;49700;48.072;7.800;2022-12-29T09:05:00;99169.44;;;13.50;52.56
63556;BME280;49700;48.072;7.800;2022-12-29T09:07:26;99181.66;;;13.51;52.53
63556;BME280;49700;48.072;7.800;2022-12-29T09:09:51;99195.69;;;13.52;52.59
63556;BME280;49700;48.072;7.800;2022-12-29T09:12:17;99176.97;;;13.55;52.21
63556;BME280;49700;48.072;7.800;2022-12-29T09:14:43;99191.44;;;13.60;52.28
63556;BME280;49700;48.072;7.800;2022-12-29T09:17:10;99188.31;;;13.66;51.95
63556;BME280;49700;48.072;7.800;2022-12-29T09:19:54;99191.53;;;13.70;52.02
63556;BME280;49700;48.072;7.800;2022-12-29T09:22:19;99199.91;;;13.75;51.75
63556;BME280;49700;48.072;7.800;2022-12-29T09:24:45;99192.72;;;13.77;51.70
63556;BME280;49700;48.072;7.800;2022-12-29T09:27:10;99195.94;;;13.81;51.71
63556;BME280;49700;48.072;7.800;2022-12-29T09:29:35;99192.66;;;13.88;51.70
63556;BME280;49700;48.072;7.800;2022-12-29T09:32:01;99201.03;;;13.93;51.58
63556;BME280;49700;48.072;7.800;2022-12-29T09:34:27;99197.84;;;14.00;51.67
63556;BME280;49700;48.072;7.800;2022-12-29T09:36:52;99199.00;;;14.07;51.57
63556;BME280;49700;48.072;7.800;2022-12-29T09:39:18;99195.03;;;14.12;51.34
63556;BME280;49700;48.072;7.800;2022-12-29T09:44:39;99209.97;;;14.23;51.13
63556;BME280;49700;48.072;7.800;2022-12-29T09:47:12;99205.28;;;14.36;51.21
63556;BME280;49700;48.072;7.800;2022-12-29T09:49:45;99215.91;;;14.46;51.23
63556;BME280;49700;48.072;7.800;2022-12-29T09:52:36;99212.88;;;14.51;51.46
63556;BME280;49700;48.072;7.800;2022-12-29T09:55:09;99211.88;;;14.52;51.58
63556;BME280;49700;48.072;7.800;2022-12-29T09:57:46;99206.88;;;14.49;52.05
63556;BME280;49700;48.072;7.800;2022-12-29T10:00:18;99208.81;;;14.47;52.63
63556;BME280;49700;48.072;7.800;2022-12-29T10:02:48;99213.78;;;14.40;53.23
63556;BME280;49700;48.072;7.800;2022-12-29T10:05:28;99201.69;;;14.37;53.64
63556;BME280;49700;48.072;7.800;2022-12-29T10:10:48;99206.34;;;14.24;54.12
63556;BME280;49700;48.072;7.800;2022-12-29T10:13:28;99209.25;;;14.21;54.64
63556;BME280;49700;48.072;7.800;2022-12-29T10:16:20;99203.50;;;14.16;54.82
63556;BME280;49700;48.072;7.800;2022-12-29T10:24:16;99195.53;;;14.06;55.28
63556;BME280;49700;48.072;7.800;2022-12-29T10:26:45;99200.31;;;14.12;55.11
63556;BME280;49700;48.072;7.800;2022-12-29T10:29:25;99194.88;;;14.14;55.25
63556;BME280;49700;48.072;7.800;2022-12-29T10:31:59;99191.97;;;14.17;54.88
63556;BME280;49700;48.072;7.800;2022-12-29T10:34:32;99189.22;;;14.19;55.08
63556;BME280;49700;48.072;7.800;2022-12-29T10:37:05;99187.41;;;14.19;55.13
63556;BME280;49700;48.072;7.800;2022-12-29T10:39:45;99191.47;;;14.23;55.09
63556;BME280;49700;48.072;7.800;2022-12-29T10:42:25;99190.88;;;14.20;55.11
63556;BME280;49700;48.072;7.800;2022-12-29T10:44:51;99194.59;;;14.17;55.18
63556;BME280;49700;48.072;7.800;2022-12-29T10:47:22;99200.03;;;14.15;55.41
63556;BME280;49700;48.072;7.800;2022-12-29T10:49:50;99199.44;;;14.12;55.64
63556;BME280;49700;48.072;7.800;2022-12-29T10:52:17;99191.66;;;14.10;56.34
63556;BME280;49700;48.072;7.800;2022-12-29T10:54:54;99184.38;;;14.03;57.49
63556;BME280;49700;48.072;7.800;2022-12-29T10:57:40;99183.41;;;14.04;57.83
63556;BME280;49700;48.072;7.800;2022-12-29T11:00:13;99186.56;;;13.98;57.98
63556;BME280;49700;48.072;7.800;2022-12-29T11:08:24;99170.44;;;13.91;58.54
63556;BME280;49700;48.072;7.800;2022-12-29T11:11:03;99161.84;;;13.99;58.35
63556;BME280;49700;48.072;7.800;2022-12-29T11:13:31;99159.53;;;14.05;58.34
63556;BME280;49700;48.072;7.800;2022-12-29T11:15:56;99169.56;;;14.11;57.67
63556;BME280;49700;48.072;7.800;2022-12-29T11:18:37;99175.44;;;14.15;57.26
63556;BME280;49700;48.072;7.800;2022-12-29T11:21:25;99170.56;;;14.20;56.71
63556;BME280;49700;48.072;7.800;2022-12-29T11:24:04;99167.94;;;14.20;57.15
63556;BME280;49700;48.072;7.800;2022-12-29T11:26:32;99170.38;;;14.12;58.04
63556;BME280;49700;48.072;7.800;2022-12-29T11:31:46;99157.41;;;13.99;59.26
63556;BME280;49700;48.072;7.800;2022-12-29T11:34:22;99150.59;;;13.97;59.27
63556;BME280;49700;48.072;7.800;2022-12-29T11:36:50;99152.31;;;14.07;59.11
63556;BME280;49700;48.072;7.800;2022-12-29T11:39:26;99147.91;;;14.17;59.06
63556;BME280;49700;48.072;7.800;2022-12-29T11:41:53;99150.31;;;14.30;58.68
63556;BME280;49700;48.072;7.800;2022-12-29T11:44:19;99145.22;;;14.38;58.21
63556;BME280;49700;48.072;7.800;2022-12-29T11:46:48;99140.53;;;14.42;57.80
63556;BME280;49700;48.072;7.800;2022-12-29T11:49:25;99143.84;;;14.44;57.25
63556;BME280;49700;48.072;7.800;2022-12-29T11:51:52;99143.56;;;14.47;57.11
63556;BME280;49700;48.072;7.800;2022-12-29T11:54:25;99150.28;;;14.51;56.94
63556;BME280;49700;48.072;7.800;2022-12-29T11:56:53;99145.81;;;14.52;56.54
63556;BME280;49700;48.072;7.800;2022-12-29T12:01:58;99136.16;;;14.62;55.92
63556;BME280;49700;48.072;7.800;2022-12-29T12:04:26;99128.25;;;14.72;55.80
63556;BME280;49700;48.072;7.800;2022-12-29T12:07:15;99121.88;;;14.84;55.24
63556;BME280;49700;48.072;7.800;2022-12-29T12:09:49;99130.66;;;14.94;55.09
63556;BME280;49700;48.072;7.800;2022-12-29T12:12:30;99113.41;;;15.00;54.71
63556;BME280;49700;48.072;7.800;2022-12-29T12:14:59;99122.31;;;14.99;54.67
63556;BME280;49700;48.072;7.800;2022-12-29T12:17:53;99117.28;;;14.96;54.44
63556;BME280;49700;48.072;7.800;2022-12-29T12:25:34;99122.84;;;14.83;54.50
63556;BME280;49700;48.072;7.800;2022-12-29T12:28:11;99113.66;;;14.77;54.64
63556;BME280;49700;48.072;7.800;2022-12-29T12:30:48;99122.09;;;14.71;54.96
63556;BME280;49700;48.072;7.800;2022-12-29T12:33:42;99102.78;;;14.71;55.11
63556;BME280;49700;48.072;7.800;2022-12-29T12:36:21;99097.88;;;14.66;55.40
63556;BME280;49700;48.072;7.800;2022-12-29T12:39:12;99094.13;;;14.69;55.81
63556;BME280;49700;48.072;7.800;2022-12-29T12:41:54;99100.84;;;14.73;55.72
63556;BME280;49700;48.072;7.800;2022-12-29T12:50:02;99093.88;;;14.81;56.01
63556;BME280;49700;48.072;7.800;2022-12-29T13:01:11;99075.53;;;14.80;56.12
63556;BME280;49700;48.072;7.800;2022-12-29T13:14:46;99072.59;;;14.73;56.09
63556;BME280;49700;48.072;7.800;2022-12-29T13:23:01;99064.94;;;14.70;56.30
63556;BME280;49700;48.072;7.800;2022-12-29T13:25:55;99055.59;;;14.66;56.51
63556;BME280;49700;48.072;7.800;2022-12-29T13:28:50;99059.09;;;14.67;56.27
63556;BME280;49700;48.072;7.800;2022-12-29T13:36:51;99049.06;;;14.60;56.12
63556;BME280;49700;48.072;7.800;2022-12-29T13:39:36;99049.22;;;14.59;56.06
63556;BME280;49700;48.072;7.800;2022-12-29T13:42:03;99048.22;;;14.60;56.04
63556;BME280;49700;48.072;7.800;2022-12-29T13:44:34;99049.63;;;14.64;56.00
63556;BME280;49700;48.072;7.800;2022-12-29T13:47:05;99047.94;;;14.63;55.96
63556;BME280;49700;48.072;7.800;2022-12-29T13:49:34;99053.81;;;14.67;55.86
63556;BME280;49700;48.072;7.800;2022-12-29T13:52:13;99041.69;;;14.64;56.03
63556;BME280;49700;48.072;7.800;2022-12-29T13:57:14;99056.03;;;14.71;55.64
63556;BME280;49700;48.072;7.800;2022-12-29T13:59:57;99056.28;;;14.68;55.58
63556;BME280;49700;48.072;7.800;2022-12-29T14:02:33;99059.50;;;14.62;55.40
63556;BME280;49700;48.072;7.800;2022-12-29T14:05:15;99046.84;;;14.56;55.50
63556;BME280;49700;48.072;7.800;2022-12-29T14:07:58;99050.97;;;14.49;55.59
63556;BME280;49700;48.072;7.800;2022-12-29T14:10:45;99059.56;;;14.41;55.87
63556;BME280;49700;48.072;7.800;2022-12-29T14:15:45;99055.38;;;14.38;56.34
63556;BME280;49700;48.072;7.800;2022-12-29T14:18:19;99054.66;;;14.36;56.58
63556;BME280;49700;48.072;7.800;2022-12-29T14:20:51;99067.31;;;14.33;56.78
63556;BME280;49700;48.072;7.800;2022-12-29T14:26:09;99062.97;;;14.22;57.38
63556;BME280;49700;48.072;7.800;2022-12-29T14:28:43;99076.19;;;14.22;57.65
63556;BME280;49700;48.072;7.800;2022-12-29T14:33:41;99067.56;;;14.20;57.88
63556;BME280;49700;48.072;7.800;2022-12-29T14:36:33;99074.66;;;14.20;57.92
63556;BME280;49700;48.072;7.800;2022-12-29T14:38:59;99080.09;;;14.18;57.98
63556;BME280;49700;48.072;7.800;2022-12-29T14:43:57;99086.75;;;14.12;58.28
63556;BME280;49700;48.072;7.800;2022-12-29T14:46:22;99087.84;;;14.10;58.38
63556;BME280;49700;48.072;7.800;2022-12-29T14:48:55;99092.25;;;14.09;58.31
63556;BME280;49700;48.072;7.800;2022-12-29T14:51:30;99093.34;;;14.07;58.27
63556;BME280;49700;48.072;7.800;2022-12-29T14:53:57;99103.69;;;14.10;58.28
63556;BME280;49700;48.072;7.800;2022-12-29T14:56:28;99093.34;;;14.07;58.43
63556;BME280;49700;48.072;7.800;2022-12-29T14:59:01;99110.91;;;14.08;58.29
63556;BME280;49700;48.072;7.800;2022-12-29T15:01:45;99125.19;;;14.05;58.43